Time;durP1;ratioP1;P1;durP2;ratioP2;P2;SDS_P1;SDS_P2;PMS_P1;PMS_P2;Temp;Humidity;BMP_temperature;BMP_pressure;BME280_temperature;BME280_humidity;BME280_pressure;Samples;Min_cycle;Max_cycle;Signal;HPM_P1;HPM_P2
2023/07/22 00:00:32;;;;;;;14.40;12.33;;;;;;;;;;5134292;27;21046;-74
2023/07/22 00:02:59;;;;;;;15.40;12.47;;;;;;;;;;5138632;27;20764;-74
2023/07/22 00:05:27;;;;;;;20.67;11.90;;;;;;;;;;5138277;27;20461;-74
2023/07/22 00:07:55;;;;;;;15.63;11.77;;;;;;;;;;5139012;27;20783;-74
2023/07/22 00:10:22;;;;;;;18.23;13.40;;;;;;;;;;5138247;27;20826;-73
2023/07/22 00:12:49;;;;;;;17.03;11.00;;;;;;;;;;5138115;27;20435;-73
2023/07/22 00:15:16;;;;;;;13.93;10.90;;;;;;;;;;5137968;27;20436;-73
2023/07/22 00:17:44;;;;;;;22.60;11.17;;;;;;;;;;5138040;27;20521;-73
2023/07/22 00:20:12;;;;;;;19.80;11.30;;;;;;;;;;5137868;27;20566;-73
2023/07/22 00:22:41;;;;;;;15.83;11.60;;;;;;;;;;5137881;27;20448;-73
2023/07/22 00:25:10;;;;;;;14.50;11.70;;;;;;;;;;5137820;27;20432;-73
2023/07/22 00:27:38;;;;;;;16.27;11.43;;;;;;;;;;5137868;27;20445;-73
2023/07/22 00:30:06;;;;;;;17.70;12.83;;;;;;;;;;5137918;27;20767;-74
2023/07/22 00:32:33;;;;;;;16.00;11.70;;;;;;;;;;5137659;27;20513;-74
2023/07/22 00:35:00;;;;;;;20.10;11.70;;;;;;;;;;5137236;27;20442;-74
2023/07/22 00:37:27;;;;;;;14.93;12.93;;;;;;;;;;5137294;27;20949;-74
2023/07/22 00:39:56;;;;;;;14.43;11.23;;;;;;;;;;5137339;27;20436;-73
2023/07/22 00:42:23;;;;;;;15.97;12.07;;;;;;;;;;5138004;27;20439;-74
2023/07/22 00:44:50;;;;;;;14.90;11.27;;;;;;;;;;5137354;27;20458;-73
2023/07/22 00:47:17;;;;;;;14.77;11.03;;;;;;;;;;5137088;27;20466;-74
2023/07/22 00:49:45;;;;;;;12.80;11.43;;;;;;;;;;5136976;27;20454;-74
2023/07/22 00:52:12;;;;;;;16.10;11.17;;;;;;;;;;5136931;27;20444;-74
2023/07/22 00:54:40;;;;;;;17.70;9.80;;;;;;;;;;5137139;27;20472;-74
2023/07/22 00:57:09;;;;;;;13.33;10.63;;;;;;;;;;5137005;27;20479;-74
2023/07/22 00:59:36;;;;;;;15.77;11.57;;;;;;;;;;5137369;27;20554;-73
2023/07/22 01:02:03;;;;;;;16.83;10.37;;;;;;;;;;5136911;27;20880;-75
2023/07/22 01:04:31;;;;;;;15.70;11.77;;;;;;;;;;5137082;27;20475;-74
2023/07/22 01:06:59;;;;;;;17.60;11.73;;;;;;;;;;5137055;27;20471;-75
2023/07/22 01:09:26;;;;;;;15.70;11.07;;;;;;;;;;5137066;27;20794;-74
2023/07/22 01:11:53;;;;;;;17.73;12.53;;;;;;;;;;5136624;27;20830;-75
2023/07/22 01:14:22;;;;;;;13.87;10.40;;;;;;;;;;5137031;27;20454;-74
2023/07/22 01:16:49;;;;;;;20.03;11.37;;;;;;;;;;5136823;27;20466;-74
2023/07/22 01:19:18;;;;;;;18.97;11.07;;;;;;;;;;5136823;27;20435;-74
2023/07/22 01:21:46;;;;;;;16.90;10.43;;;;;;;;;;5136609;27;20467;-73
2023/07/22 01:24:16;;;;;;;19.30;11.73;;;;;;;;;;5136669;27;20780;-74
2023/07/22 01:26:44;;;;;;;17.10;11.07;;;;;;;;;;5136270;27;20444;-73
2023/07/22 01:29:11;;;;;;;21.17;10.90;;;;;;;;;;5136221;27;20943;-74
2023/07/22 01:31:40;;;;;;;18.77;10.40;;;;;;;;;;5136692;27;20448;-74
2023/07/22 01:34:07;;;;;;;17.03;10.87;;;;;;;;;;5136503;27;20448;-73
2023/07/22 01:36:34;;;;;;;12.67;9.33;;;;;;;;;;5136614;27;20437;-74
2023/07/22 01:39:01;;;;;;;17.87;11.47;;;;;;;;;;5136581;27;20432;-74
2023/07/22 01:41:31;;;;;;;14.93;11.67;;;;;;;;;;5136165;27;21001;-74
2023/07/22 01:43:58;;;;;;;14.60;10.50;;;;;;;;;;5136108;27;20496;-73
2023/07/22 01:46:25;;;;;;;22.47;11.53;;;;;;;;;;5136338;27;20500;-73
2023/07/22 01:48:52;;;;;;;21.57;11.40;;;;;;;;;;5136182;27;20445;-73
2023/07/22 01:51:19;;;;;;;22.33;11.57;;;;;;;;;;5135829;27;20447;-73
2023/07/22 01:53:47;;;;;;;15.50;11.60;;;;;;;;;;5136210;27;20437;-74
2023/07/22 01:56:14;;;;;;;13.73;10.50;;;;;;;;;;5136253;27;20484;-74
2023/07/22 01:58:43;;;;;;;16.80;11.23;;;;;;;;;;5135987;27;20530;-74
2023/07/22 02:01:13;;;;;;;13.93;10.87;;;;;;;;;;5135913;27;20494;-74
2023/07/22 02:03:41;;;;;;;17.50;11.70;;;;;;;;;;5135652;27;20512;-73
2023/07/22 02:06:08;;;;;;;14.70;12.63;;;;;;;;;;5135875;27;20792;-73
2023/07/22 02:08:36;;;;;;;15.03;10.77;;;;;;;;;;5135920;27;20440;-73
2023/07/22 02:11:04;;;;;;;17.93;11.47;;;;;;;;;;5135948;27;20448;-73
2023/07/22 02:13:31;;;;;;;15.27;11.77;;;;;;;;;;5136013;27;20824;-73
2023/07/22 02:16:00;;;;;;;16.97;11.40;;;;;;;;;;5135296;27;20440;-73
2023/07/22 02:18:28;;;;;;;17.70;12.63;;;;;;;;;;5136282;27;20440;-73
2023/07/22 02:20:55;;;;;;;14.23;12.00;;;;;;;;;;5135466;27;20475;-73
2023/07/22 02:23:23;;;;;;;14.97;10.77;;;;;;;;;;5134618;27;20532;-73
2023/07/22 02:25:50;;;;;;;12.40;11.03;;;;;;;;;;5135252;27;20475;-74
2023/07/22 02:28:20;;;;;;;16.80;12.00;;;;;;;;;;5135523;27;20447;-73
2023/07/22 02:30:48;;;;;;;12.53;11.07;;;;;;;;;;5135139;27;20962;-73
2023/07/22 02:33:17;;;;;;;16.10;12.07;;;;;;;;;;5135712;27;20442;-73
2023/07/22 02:35:44;;;;;;;16.80;11.30;;;;;;;;;;5136158;27;20446;-73
2023/07/22 02:38:11;;;;;;;15.23;11.63;;;;;;;;;;5134778;27;20454;-73
2023/07/22 02:40:39;;;;;;;11.17;9.90;;;;;;;;;;5135555;27;20437;-73
2023/07/22 02:43:06;;;;;;;13.13;9.90;;;;;;;;;;5135118;27;20436;-73
2023/07/22 02:45:34;;;;;;;16.80;12.10;;;;;;;;;;5134832;27;20444;-73
2023/07/22 02:48:01;;;;;;;16.80;11.20;;;;;;;;;;5135000;27;20850;-73
2023/07/22 02:50:30;;;;;;;13.57;11.13;;;;;;;;;;5135124;27;20448;-73
2023/07/22 02:52:57;;;;;;;19.77;11.77;;;;;;;;;;5134616;27;20439;-73
2023/07/22 02:55:24;;;;;;;16.10;11.83;;;;;;;;;;5134649;27;20440;-73
2023/07/22 02:57:52;;;;;;;20.80;12.30;;;;;;;;;;5134628;27;20534;-73
2023/07/22 03:00:23;;;;;;;17.30;11.73;;;;;;;;;;5134990;27;20555;-73
2023/07/22 03:02:52;;;;;;;21.30;11.67;;;;;;;;;;5134814;27;20506;-73
2023/07/22 03:05:19;;;;;;;21.10;11.97;;;;;;;;;;5134518;27;20454;-73
2023/07/22 03:07:48;;;;;;;17.70;11.60;;;;;;;;;;5134632;27;20496;-73
2023/07/22 03:10:15;;;;;;;30.40;14.37;;;;;;;;;;5134411;27;20435;-73
2023/07/22 03:12:42;;;;;;;16.70;12.10;;;;;;;;;;5134565;27;20444;-74
2023/07/22 03:15:12;;;;;;;18.47;12.17;;;;;;;;;;5134532;27;20435;-74
2023/07/22 03:17:41;;;;;;;20.30;12.40;;;;;;;;;;5134839;27;20433;-75
2023/07/22 03:20:13;;;;;;;17.67;12.40;;;;;;;;;;5134288;27;20448;-74
2023/07/22 03:22:40;;;;;;;22.00;13.03;;;;;;;;;;5134248;27;20968;-74
2023/07/22 03:25:10;;;;;;;26.67;13.57;;;;;;;;;;5134842;27;20523;-74
2023/07/22 03:27:37;;;;;;;22.23;14.30;;;;;;;;;;5133940;27;20436;-75
2023/07/22 03:30:06;;;;;;;20.73;14.20;;;;;;;;;;5133248;27;20470;-74
2023/07/22 03:32:34;;;;;;;23.00;13.37;;;;;;;;;;5133585;27;20451;-74
2023/07/22 03:35:02;;;;;;;22.83;15.20;;;;;;;;;;5133724;27;20440;-74
2023/07/22 03:37:30;;;;;;;26.60;15.93;;;;;;;;;;5133377;27;20477;-73
2023/07/22 03:39:57;;;;;;;20.30;13.90;;;;;;;;;;5133328;27;20968;-74
2023/07/22 03:42:26;;;;;;;20.00;15.00;;;;;;;;;;5133594;28;20973;-74
2023/07/22 03:44:53;;;;;;;21.80;13.73;;;;;;;;;;5133215;28;21149;-74
2023/07/22 03:47:21;;;;;;;17.43;12.80;;;;;;;;;;5133322;28;20841;-74
2023/07/22 03:49:48;;;;;;;25.63;15.07;;;;;;;;;;5133086;28;20454;-74
2023/07/22 03:52:18;;;;;;;20.37;14.93;;;;;;;;;;5133230;28;20555;-74
2023/07/22 03:54:45;;;;;;;22.33;14.77;;;;;;;;;;5133413;28;20782;-74
2023/07/22 03:57:12;;;;;;;21.23;13.60;;;;;;;;;;5133254;28;20534;-74
2023/07/22 03:59:42;;;;;;;19.13;14.70;;;;;;;;;;5133136;28;20972;-74
2023/07/22 04:02:09;;;;;;;18.40;13.10;;;;;;;;;;5133360;28;20486;-75
2023/07/22 04:04:36;;;;;;;21.20;14.70;;;;;;;;;;5133934;28;20440;-74
2023/07/22 04:07:07;;;;;;;18.60;12.80;;;;;;;;;;5133896;28;20435;-74
2023/07/22 04:09:34;;;;;;;19.20;13.77;;;;;;;;;;5134174;28;20775;-74
2023/07/22 04:12:02;;;;;;;23.50;14.60;;;;;;;;;;5134110;28;20479;-74
2023/07/22 04:14:29;;;;;;;20.13;13.70;;;;;;;;;;5133587;28;20447;-74
2023/07/22 04:16:58;;;;;;;17.17;13.50;;;;;;;;;;5133828;28;20440;-74
2023/07/22 04:19:25;;;;;;;25.00;14.70;;;;;;;;;;5133122;28;20460;-75
2023/07/22 04:21:52;;;;;;;22.90;14.67;;;;;;;;;;5132911;28;20472;-74
2023/07/22 04:24:19;;;;;;;18.30;13.33;;;;;;;;;;5133301;28;20928;-74
2023/07/22 04:26:47;;;;;;;25.27;15.27;;;;;;;;;;5133408;28;20444;-74
2023/07/22 04:29:14;;;;;;;24.07;15.17;;;;;;;;;;5133616;28;20798;-75
2023/07/22 04:31:41;;;;;;;21.03;13.73;;;;;;;;;;5133421;28;20986;-74
2023/07/22 04:34:12;;;;;;;19.83;13.53;;;;;;;;;;5133284;28;20450;-73
2023/07/22 04:36:39;;;;;;;21.20;15.27;;;;;;;;;;5133956;28;20427;-74
2023/07/22 04:39:07;;;;;;;18.93;14.40;;;;;;;;;;5133164;28;20448;-74
2023/07/22 04:41:34;;;;;;;23.10;14.93;;;;;;;;;;5133010;28;20484;-74
2023/07/22 04:44:01;;;;;;;22.77;15.07;;;;;;;;;;5133167;28;20453;-74
2023/07/22 04:46:29;;;;;;;21.97;14.70;;;;;;;;;;5133257;27;20450;-74
2023/07/22 04:48:57;;;;;;;19.30;15.27;;;;;;;;;;5136877;27;20443;-74
2023/07/22 04:51:27;;;;;;;18.30;14.13;;;;;;;;;;5136878;27;20972;-74
2023/07/22 04:53:54;;;;;;;21.87;13.97;;;;;;;;;;5136587;27;20924;-73
2023/07/22 04:56:21;;;;;;;24.87;14.03;;;;;;;;;;5137184;27;20519;-74
2023/07/22 04:58:49;;;;;;;18.80;13.80;;;;;;;;;;5136337;27;20448;-76
2023/07/22 05:01:16;;;;;;;18.30;13.07;;;;;;;;;;5136191;27;20444;-75
2023/07/22 05:03:44;;;;;;;20.17;14.50;;;;;;;;;;5136774;27;20464;-75
2023/07/22 05:06:11;;;;;;;24.43;14.70;;;;;;;;;;5137017;27;20799;-74
2023/07/22 05:08:40;;;;;;;20.83;14.87;;;;;;;;;;5137074;27;20528;-74
2023/07/22 05:11:08;;;;;;;21.67;14.50;;;;;;;;;;5136867;27;20439;-74
2023/07/22 05:13:35;;;;;;;18.30;13.30;;;;;;;;;;5136522;27;20441;-74
2023/07/22 05:16:02;;;;;;;25.00;16.33;;;;;;;;;;5136870;27;20440;-74
2023/07/22 05:18:30;;;;;;;21.37;13.40;;;;;;;;;;5136688;27;20440;-74
2023/07/22 05:20:57;;;;;;;21.87;15.70;;;;;;;;;;5136237;27;20484;-74
2023/07/22 05:23:24;;;;;;;23.80;15.23;;;;;;;;;;5136277;27;20486;-75
2023/07/22 05:25:56;;;;;;;25.27;15.43;;;;;;;;;;5136699;27;20433;-74
2023/07/22 05:28:23;;;;;;;15.90;13.30;;;;;;;;;;5136224;27;20440;-74
2023/07/22 05:30:50;;;;;;;19.43;13.70;;;;;;;;;;5136458;27;20436;-74
2023/07/22 05:33:17;;;;;;;21.57;13.80;;;;;;;;;;5136081;27;20444;-74
2023/07/22 05:35:44;;;;;;;18.67;13.43;;;;;;;;;;5136663;27;20441;-74
2023/07/22 05:38:12;;;;;;;18.50;12.93;;;;;;;;;;5136419;27;20440;-74
2023/07/22 05:40:39;;;;;;;16.93;12.80;;;;;;;;;;5135745;27;20447;-73
2023/07/22 05:43:07;;;;;;;17.33;13.23;;;;;;;;;;5135870;27;20913;-74
2023/07/22 05:45:35;;;;;;;18.17;14.33;;;;;;;;;;5135814;27;20477;-73
2023/07/22 05:48:02;;;;;;;18.97;13.60;;;;;;;;;;5135860;27;20437;-73
2023/07/22 05:50:29;;;;;;;21.80;15.30;;;;;;;;;;5135835;27;20864;-73
2023/07/22 05:52:56;;;;;;;17.67;13.07;;;;;;;;;;5135916;27;20805;-73
2023/07/22 05:55:23;;;;;;;15.33;13.00;;;;;;;;;;5135895;27;20452;-74
2023/07/22 05:57:51;;;;;;;19.47;13.03;;;;;;;;;;5136027;27;20441;-74
2023/07/22 06:00:19;;;;;;;22.50;15.20;;;;;;;;;;5134096;27;20477;-74
2023/07/22 06:02:46;;;;;;;18.27;13.33;;;;;;;;;;5135079;27;20479;-73
2023/07/22 06:05:13;;;;;;;19.87;14.13;;;;;;;;;;5135711;27;20468;-74
2023/07/22 06:07:41;;;;;;;17.57;14.73;;;;;;;;;;5135803;27;20443;-74
2023/07/22 06:10:09;;;;;;;18.30;13.30;;;;;;;;;;5135772;27;20437;-73
2023/07/22 06:12:36;;;;;;;16.70;13.60;;;;;;;;;;5135624;27;20444;-74
2023/07/22 06:15:03;;;;;;;16.30;13.03;;;;;;;;;;5134954;27;20446;-73
2023/07/22 06:17:32;;;;;;;18.77;11.80;;;;;;;;;;5135351;27;20449;-74
2023/07/22 06:19:59;;;;;;;17.23;12.70;;;;;;;;;;5135143;27;20447;-74
2023/07/22 06:22:26;;;;;;;16.40;12.43;;;;;;;;;;5134674;27;20473;-73
2023/07/22 06:24:53;;;;;;;16.33;12.73;;;;;;;;;;5135050;27;20446;-74
2023/07/22 06:27:21;;;;;;;26.17;12.87;;;;;;;;;;5135085;27;20441;-73
2023/07/22 06:29:48;;;;;;;18.57;14.07;;;;;;;;;;5135408;27;20441;-73
2023/07/22 06:32:15;;;;;;;19.50;13.47;;;;;;;;;;5135330;27;20447;-73
2023/07/22 06:34:43;;;;;;;17.13;12.00;;;;;;;;;;5134895;27;20449;-74
2023/07/22 06:37:11;;;;;;;14.90;12.40;;;;;;;;;;5135055;27;20786;-67
2023/07/22 06:39:38;;;;;;;16.50;12.77;;;;;;;;;;5134854;27;20803;-70
2023/07/22 06:42:05;;;;;;;22.50;13.87;;;;;;;;;;5134675;27;20439;-71
2023/07/22 06:44:32;;;;;;;21.03;12.60;;;;;;;;;;5134994;27;20445;-71
2023/07/22 06:47:00;;;;;;;16.10;12.73;;;;;;;;;;5135008;27;20515;-71
2023/07/22 06:49:27;;;;;;;17.20;12.33;;;;;;;;;;5134977;27;20537;-71
2023/07/22 06:51:55;;;;;;;19.87;13.63;;;;;;;;;;5134999;27;20455;-70
2023/07/22 06:54:23;;;;;;;17.47;13.50;;;;;;;;;;5134362;27;20515;-72
2023/07/22 06:56:50;;;;;;;16.23;13.30;;;;;;;;;;5134934;27;20986;-70
2023/07/22 06:59:17;;;;;;;21.03;13.03;;;;;;;;;;5134485;27;20826;-71
2023/07/22 07:01:44;;;;;;;19.70;13.10;;;;;;;;;;5134211;27;20436;-71
2023/07/22 07:04:11;;;;;;;16.57;12.57;;;;;;;;;;5134443;27;20481;-70
2023/07/22 07:06:39;;;;;;;18.83;12.60;;;;;;;;;;5134641;27;20444;-69
2023/07/22 07:09:07;;;;;;;18.40;14.67;;;;;;;;;;5134681;27;20931;-71
2023/07/22 07:11:34;;;;;;;21.20;14.43;;;;;;;;;;5134384;27;20440;-73
2023/07/22 07:14:02;;;;;;;19.00;13.40;;;;;;;;;;5134676;27;20455;-70
2023/07/22 07:16:31;;;;;;;18.63;13.53;;;;;;;;;;5133028;27;20440;-71
2023/07/22 07:18:58;;;;;;;18.10;12.00;;;;;;;;;;5134653;27;20435;-71
2023/07/22 07:21:26;;;;;;;22.20;14.83;;;;;;;;;;5133561;27;20968;-71
2023/07/22 07:23:53;;;;;;;19.30;13.07;;;;;;;;;;5133566;27;20991;-71
2023/07/22 07:26:22;;;;;;;19.50;13.20;;;;;;;;;;5134457;27;20435;-70
2023/07/22 07:28:50;;;;;;;19.67;12.97;;;;;;;;;;5133859;27;20979;-71
2023/07/22 07:31:17;;;;;;;21.63;14.50;;;;;;;;;;5133957;27;20445;-71
2023/07/22 07:33:44;;;;;;;22.77;14.20;;;;;;;;;;5134056;27;20929;-71
2023/07/22 07:36:12;;;;;;;25.37;14.97;;;;;;;;;;5133836;27;20436;-71
2023/07/22 07:38:39;;;;;;;20.77;14.23;;;;;;;;;;5133724;27;20946;-70
2023/07/22 07:41:08;;;;;;;20.00;14.67;;;;;;;;;;5133876;27;20466;-71
2023/07/22 07:43:37;;;;;;;18.80;14.33;;;;;;;;;;5133628;27;20507;-70
2023/07/22 07:46:14;;;;;;;21.67;15.60;;;;;;;;;;5133898;27;20443;-70
2023/07/22 07:48:41;;;;;;;21.73;15.03;;;;;;;;;;5133751;28;20763;-71
2023/07/22 07:51:08;;;;;;;31.97;15.67;;;;;;;;;;5133956;28;20441;-70
2023/07/22 07:53:35;;;;;;;22.73;16.30;;;;;;;;;;5134277;28;20450;-70
2023/07/22 07:56:02;;;;;;;20.37;14.73;;;;;;;;;;5133393;28;20442;-71
2023/07/22 07:58:29;;;;;;;23.33;15.80;;;;;;;;;;5134035;28;20452;-71
2023/07/22 08:00:57;;;;;;;24.50;15.13;;;;;;;;;;5134049;28;20474;-71
2023/07/22 08:03:25;;;;;;;19.77;14.90;;;;;;;;;;5132966;28;21013;-71
2023/07/22 08:05:52;;;;;;;22.20;14.03;;;;;;;;;;5133828;28;20457;-71
2023/07/22 08:08:19;;;;;;;21.40;14.17;;;;;;;;;;5133439;28;21013;-70
2023/07/22 08:10:46;;;;;;;20.73;14.03;;;;;;;;;;5133210;28;20447;-71
2023/07/22 08:13:14;;;;;;;19.70;13.30;;;;;;;;;;5133468;28;20445;-70
2023/07/22 08:15:42;;;;;;;23.00;14.83;;;;;;;;;;5133460;28;20475;-71
2023/07/22 08:18:11;;;;;;;20.63;14.00;;;;;;;;;;5133640;28;20874;-71
2023/07/22 08:20:38;;;;;;;23.70;15.90;;;;;;;;;;5133315;28;20441;-71
2023/07/22 08:23:05;;;;;;;19.20;13.30;;;;;;;;;;5135845;27;20483;-71
2023/07/22 08:25:33;;;;;;;18.07;12.50;;;;;;;;;;5137826;27;20525;-70
2023/07/22 08:28:00;;;;;;;20.57;11.70;;;;;;;;;;5137359;27;20936;-70
2023/07/22 08:30:27;;;;;;;14.73;11.47;;;;;;;;;;5137371;27;20444;-71
2023/07/22 08:32:54;;;;;;;15.83;10.83;;;;;;;;;;5137200;27;20459;-71
2023/07/22 08:35:23;;;;;;;16.70;10.70;;;;;;;;;;5137158;27;20948;-71
2023/07/22 08:37:50;;;;;;;13.80;10.60;;;;;;;;;;5136999;27;20528;-70
2023/07/22 08:40:18;;;;;;;14.70;11.17;;;;;;;;;;5137277;27;20475;-71
2023/07/22 08:42:46;;;;;;;15.93;11.47;;;;;;;;;;5136340;27;21018;-71
2023/07/22 08:45:15;;;;;;;15.33;10.33;;;;;;;;;;5136838;27;20478;-71
2023/07/22 08:47:48;;;;;;;15.93;11.03;;;;;;;;;;5137305;27;20438;-71
2023/07/22 08:50:16;;;;;;;18.40;12.20;;;;;;;;;;5137119;27;20915;-71
2023/07/22 08:52:45;;;;;;;16.07;11.73;;;;;;;;;;5137104;27;20444;-71
2023/07/22 08:55:13;;;;;;;17.57;12.00;;;;;;;;;;5137234;27;20467;-71
2023/07/22 08:57:40;;;;;;;14.83;11.27;;;;;;;;;;5136484;27;20437;-71
2023/07/22 09:00:09;;;;;;;16.70;12.13;;;;;;;;;;5137267;27;20474;-71
2023/07/22 09:02:36;;;;;;;15.20;12.00;;;;;;;;;;5136518;27;20454;-71
2023/07/22 09:05:03;;;;;;;13.97;11.97;;;;;;;;;;5136490;27;20481;-71
2023/07/22 09:07:31;;;;;;;17.20;13.03;;;;;;;;;;5136974;27;20430;-71
2023/07/22 09:09:59;;;;;;;17.53;13.13;;;;;;;;;;5137228;27;20524;-71
2023/07/22 09:12:27;;;;;;;15.53;11.67;;;;;;;;;;5136470;27;20437;-71
2023/07/22 09:14:54;;;;;;;12.70;11.40;;;;;;;;;;5136874;27;20811;-71
2023/07/22 09:17:21;;;;;;;12.77;10.10;;;;;;;;;;5136171;27;20445;-71
2023/07/22 09:19:53;;;;;;;12.90;10.77;;;;;;;;;;5136632;27;21002;-71
2023/07/22 09:22:20;;;;;;;15.83;10.20;;;;;;;;;;5135786;27;20516;-71
2023/07/22 09:24:47;;;;;;;16.00;10.60;;;;;;;;;;5136216;27;21004;-70
2023/07/22 09:27:16;;;;;;;10.93;9.47;;;;;;;;;;5136240;27;20934;-71
2023/07/22 09:29:44;;;;;;;11.57;9.40;;;;;;;;;;5136319;27;20450;-71
2023/07/22 09:32:11;;;;;;;13.63;9.67;;;;;;;;;;5136481;27;20494;-71
2023/07/22 09:34:39;;;;;;;9.93;8.37;;;;;;;;;;5136575;27;20437;-71
2023/07/22 09:37:06;;;;;;;10.13;8.50;;;;;;;;;;5136729;27;20446;-71
2023/07/22 09:39:33;;;;;;;11.83;9.67;;;;;;;;;;5137037;27;20511;-71
2023/07/22 09:42:01;;;;;;;13.03;9.90;;;;;;;;;;5136582;27;20438;-71
2023/07/22 09:44:32;;;;;;;10.80;8.87;;;;;;;;;;5136661;27;20479;-71
2023/07/22 09:46:59;;;;;;;13.70;9.63;;;;;;;;;;5136396;27;20444;-71
2023/07/22 09:49:26;;;;;;;13.00;9.70;;;;;;;;;;5136578;27;20443;-71
2023/07/22 09:51:54;;;;;;;13.33;10.60;;;;;;;;;;5136068;27;20534;-71
2023/07/22 09:54:21;;;;;;;13.50;9.03;;;;;;;;;;5136198;27;20446;-71
2023/07/22 09:56:49;;;;;;;11.43;8.97;;;;;;;;;;5136445;27;20442;-71
2023/07/22 09:59:19;;;;;;;8.57;7.67;;;;;;;;;;5135660;27;20476;-71
2023/07/22 10:01:48;;;;;;;9.43;6.73;;;;;;;;;;5136041;27;20431;-71
2023/07/22 10:04:17;;;;;;;8.33;6.80;;;;;;;;;;5135829;27;20986;-71
2023/07/22 10:06:45;;;;;;;9.00;8.10;;;;;;;;;;5135589;27;20445;-70
2023/07/22 10:09:12;;;;;;;7.87;7.00;;;;;;;;;;5135523;27;20506;-71
2023/07/22 10:11:41;;;;;;;10.57;7.73;;;;;;;;;;5135533;27;20434;-71
2023/07/22 10:14:08;;;;;;;7.57;5.90;;;;;;;;;;5135398;27;20926;-71
2023/07/22 10:16:36;;;;;;;10.13;7.20;;;;;;;;;;5135598;27;21416;-70
2023/07/22 10:19:06;;;;;;;8.73;7.23;;;;;;;;;;5135592;27;20442;-71
2023/07/22 10:21:33;;;;;;;8.27;7.37;;;;;;;;;;5136488;27;20427;-71
2023/07/22 10:24:02;;;;;;;7.50;6.80;;;;;;;;;;5135444;27;20496;-71
2023/07/22 10:26:29;;;;;;;8.73;6.80;;;;;;;;;;5135132;27;20555;-71
2023/07/22 10:28:57;;;;;;;10.70;8.30;;;;;;;;;;5135398;27;20445;-72
2023/07/22 10:31:24;;;;;;;10.00;7.87;;;;;;;;;;5135001;27;20498;-71
2023/07/22 10:33:52;;;;;;;8.30;7.50;;;;;;;;;;5135124;27;20449;-71
2023/07/22 10:36:21;;;;;;;8.93;7.80;;;;;;;;;;5135083;27;20442;-72
2023/07/22 10:38:57;;;;;;;8.63;6.83;;;;;;;;;;5135298;27;20524;-72
2023/07/22 10:41:24;;;;;;;8.10;6.97;;;;;;;;;;5135549;27;20427;-71
2023/07/22 10:43:58;;;;;;;8.30;6.17;;;;;;;;;;5134754;27;20476;-71
2023/07/22 10:46:35;;;;;;;7.33;6.00;;;;;;;;;;5134503;27;20436;-72
2023/07/22 10:49:11;;;;;;;7.80;6.50;;;;;;;;;;5135003;27;20525;-72
2023/07/22 10:51:40;;;;;;;8.03;6.00;;;;;;;;;;5134787;27;20443;-71
2023/07/22 10:54:12;;;;;;;8.53;5.90;;;;;;;;;;5134614;27;20468;-71
2023/07/22 10:56:39;;;;;;;6.27;5.67;;;;;;;;;;5135103;27;20423;-71
2023/07/22 10:59:07;;;;;;;9.20;5.77;;;;;;;;;;5134432;27;20483;-71
2023/07/22 11:01:38;;;;;;;8.80;6.60;;;;;;;;;;5134901;27;20435;-71
2023/07/22 11:04:10;;;;;;;6.83;6.07;;;;;;;;;;5134628;27;21160;-70
2023/07/22 11:06:37;;;;;;;8.37;5.40;;;;;;;;;;5134496;27;20447;-71
2023/07/22 11:09:05;;;;;;;6.73;6.10;;;;;;;;;;5135053;27;20449;-72
2023/07/22 11:11:39;;;;;;;9.63;6.57;;;;;;;;;;5134694;27;20533;-72
2023/07/22 11:14:16;;;;;;;7.30;6.47;;;;;;;;;;5134314;27;20450;-71
2023/07/22 11:16:44;;;;;;;6.40;5.73;;;;;;;;;;5134626;27;20527;-71
2023/07/22 11:19:11;;;;;;;8.03;5.73;;;;;;;;;;5134617;27;20427;-71
2023/07/22 11:21:39;;;;;;;9.10;6.70;;;;;;;;;;5134272;27;20443;-72
2023/07/22 11:24:08;;;;;;;8.63;6.67;;;;;;;;;;5134398;27;20624;-71
2023/07/22 11:26:35;;;;;;;8.97;6.70;;;;;;;;;;5134493;27;20497;-72
2023/07/22 11:29:02;;;;;;;9.53;6.13;;;;;;;;;;5133914;27;20461;-71
2023/07/22 11:31:33;;;;;;;6.87;6.17;;;;;;;;;;5134100;27;20966;-71
2023/07/22 11:34:01;;;;;;;7.50;5.80;;;;;;;;;;5134208;27;20443;-71
2023/07/22 11:36:28;;;;;;;7.30;5.37;;;;;;;;;;5134289;27;20533;-71
2023/07/22 11:38:55;;;;;;;7.20;5.60;;;;;;;;;;5134422;27;20450;-71
2023/07/22 11:41:24;;;;;;;8.07;5.83;;;;;;;;;;5133940;27;20623;-71
2023/07/22 11:43:52;;;;;;;7.40;6.47;;;;;;;;;;5134062;27;20479;-71
2023/07/22 11:46:19;;;;;;;7.00;6.10;;;;;;;;;;5134599;27;20439;-71
2023/07/22 11:48:52;;;;;;;7.53;6.57;;;;;;;;;;5134329;27;20528;-71
2023/07/22 11:51:21;;;;;;;8.00;7.07;;;;;;;;;;5134175;28;20442;-71
2023/07/22 11:53:49;;;;;;;8.57;6.53;;;;;;;;;;5133740;28;20439;-71
2023/07/22 11:56:20;;;;;;;7.80;6.30;;;;;;;;;;5133813;27;20440;-71
2023/07/22 11:58:52;;;;;;;6.90;6.13;;;;;;;;;;5138045;27;20464;-71
2023/07/22 12:01:19;;;;;;;7.40;6.70;;;;;;;;;;5138555;27;20513;-71
2023/07/22 12:03:47;;;;;;;6.97;6.27;;;;;;;;;;5138148;27;20804;-71
2023/07/22 12:06:15;;;;;;;12.50;6.37;;;;;;;;;;5138281;27;20865;-71
2023/07/22 12:08:46;;;;;;;6.57;5.97;;;;;;;;;;5138497;27;20437;-71
2023/07/22 12:11:19;;;;;;;6.73;6.13;;;;;;;;;;5138240;27;20443;-71
2023/07/22 12:13:50;;;;;;;7.30;6.30;;;;;;;;;;5138356;27;20430;-71
2023/07/22 12:16:23;;;;;;;8.80;6.07;;;;;;;;;;5138096;27;20791;-71
2023/07/22 12:18:50;;;;;;;6.30;5.70;;;;;;;;;;5138440;27;20422;-71
2023/07/22 12:21:17;;;;;;;5.90;5.30;;;;;;;;;;5137687;27;20446;-71
2023/07/22 12:23:44;;;;;;;6.53;4.80;;;;;;;;;;5136448;27;20438;-71
2023/07/22 12:26:11;;;;;;;6.17;5.03;;;;;;;;;;5137226;27;20449;-71
2023/07/22 12:28:39;;;;;;;5.50;4.50;;;;;;;;;;5137062;27;20452;-71
2023/07/22 12:31:06;;;;;;;6.50;4.50;;;;;;;;;;5137277;27;20446;-70
2023/07/22 12:33:34;;;;;;;7.43;4.80;;;;;;;;;;5137249;27;20568;-70
2023/07/22 12:36:02;;;;;;;5.80;5.20;;;;;;;;;;5137015;27;20451;-70
2023/07/22 12:38:29;;;;;;;6.50;4.77;;;;;;;;;;5137293;27;20458;-70
2023/07/22 12:40:56;;;;;;;5.67;5.17;;;;;;;;;;5136750;27;20451;-71
2023/07/22 12:43:23;;;;;;;6.90;5.70;;;;;;;;;;5137112;27;20441;-70
2023/07/22 12:45:50;;;;;;;5.63;5.13;;;;;;;;;;5136620;27;20472;-71
2023/07/22 12:48:18;;;;;;;6.43;5.83;;;;;;;;;;5136737;27;20443;-70
2023/07/22 12:50:47;;;;;;;5.50;5.00;;;;;;;;;;5136494;27;20929;-71
2023/07/22 12:53:14;;;;;;;8.33;5.10;;;;;;;;;;5136440;27;20443;-71
2023/07/22 12:55:41;;;;;;;5.00;4.27;;;;;;;;;;5136719;27;20941;-71
2023/07/22 12:58:08;;;;;;;5.27;4.77;;;;;;;;;;5137298;27;20437;-71
2023/07/22 13:00:36;;;;;;;5.10;4.70;;;;;;;;;;5137341;27;20469;-71
2023/07/22 13:03:03;;;;;;;4.97;4.47;;;;;;;;;;5137047;27;20437;-70
2023/07/22 13:05:30;;;;;;;4.47;4.07;;;;;;;;;;5136769;27;20855;-70
2023/07/22 13:08:01;;;;;;;4.03;3.73;;;;;;;;;;5136422;27;20448;-71
2023/07/22 13:10:28;;;;;;;4.67;4.10;;;;;;;;;;5136674;27;20424;-70
2023/07/22 13:12:55;;;;;;;5.77;4.10;;;;;;;;;;5136598;27;20758;-71
2023/07/22 13:15:23;;;;;;;4.50;4.10;;;;;;;;;;5136102;27;20443;-71
2023/07/22 13:17:50;;;;;;;5.43;4.00;;;;;;;;;;5136836;27;20939;-71
2023/07/22 13:20:17;;;;;;;4.30;3.90;;;;;;;;;;5136496;27;20950;-70
2023/07/22 13:22:44;;;;;;;4.63;4.17;;;;;;;;;;5136263;27;20441;-71
2023/07/22 13:25:13;;;;;;;5.57;4.07;;;;;;;;;;5136567;27;20480;-70
2023/07/22 13:27:40;;;;;;;4.50;4.10;;;;;;;;;;5135964;27;20953;-71
2023/07/22 13:30:08;;;;;;;4.27;3.83;;;;;;;;;;5136328;27;20456;-71
2023/07/22 13:32:35;;;;;;;4.50;4.10;;;;;;;;;;5136260;27;20459;-69
2023/07/22 13:35:03;;;;;;;4.70;3.93;;;;;;;;;;5135916;27;20445;-71
2023/07/22 13:37:31;;;;;;;3.73;3.43;;;;;;;;;;5136446;27;20486;-71
2023/07/22 13:39:58;;;;;;;3.90;3.60;;;;;;;;;;5136360;27;20452;-69
2023/07/22 13:42:27;;;;;;;3.77;3.47;;;;;;;;;;5136720;27;20440;-69
2023/07/22 13:44:54;;;;;;;5.83;3.67;;;;;;;;;;5136282;27;20508;-69
2023/07/22 13:47:21;;;;;;;4.43;3.40;;;;;;;;;;5136093;27;20438;-70
2023/07/22 13:49:48;;;;;;;6.67;3.97;;;;;;;;;;5136180;27;20442;-70
2023/07/22 13:52:15;;;;;;;5.30;3.57;;;;;;;;;;5136009;27;20444;-71
2023/07/22 13:54:42;;;;;;;5.63;3.97;;;;;;;;;;5135344;27;20448;-69
2023/07/22 13:57:10;;;;;;;5.53;4.00;;;;;;;;;;5135599;27;20876;-70
2023/07/22 13:59:38;;;;;;;4.40;3.20;;;;;;;;;;5136293;27;20478;-70
2023/07/22 14:02:06;;;;;;;4.30;3.90;;;;;;;;;;5136221;27;20434;-70
2023/07/22 14:04:33;;;;;;;4.97;3.73;;;;;;;;;;5136239;27;20434;-69
2023/07/22 14:07:00;;;;;;;3.73;3.30;;;;;;;;;;5135974;27;20444;-69
2023/07/22 14:09:27;;;;;;;6.00;3.70;;;;;;;;;;5136072;27;20460;-70
2023/07/22 14:11:54;;;;;;;3.57;3.27;;;;;;;;;;5135569;27;20933;-69
2023/07/22 14:14:28;;;;;;;4.43;4.03;;;;;;;;;;5136033;27;20532;-69
2023/07/22 14:16:56;;;;;;;4.77;3.90;;;;;;;;;;5135981;27;20430;-69
2023/07/22 14:19:23;;;;;;;3.83;3.47;;;;;;;;;;5134990;27;20540;-69
2023/07/22 14:21:51;;;;;;;3.40;3.10;;;;;;;;;;5135695;27;20438;-70
2023/07/22 14:24:18;;;;;;;3.93;3.57;;;;;;;;;;5135726;27;20448;-70
2023/07/22 14:26:45;;;;;;;3.17;2.87;;;;;;;;;;5135537;27;20510;-70
2023/07/22 14:29:12;;;;;;;2.90;2.67;;;;;;;;;;5136975;27;20453;-69